sensor_id;sensor_type;location;lat;lon;timestamp;pressure;altitude;pressure_sealevel;temperature;humidity
68807;BME280;55800;54.272;18.558;2023-05-19T00:00:11;102379.63;;;6.28;50.52
68807;BME280;55800;54.272;18.558;2023-05-19T00:03:01;102379.63;;;6.28;49.45
68807;BME280;55800;54.272;18.558;2023-05-19T00:05:31;102374.28;;;6.22;47.67
68807;BME280;55800;54.272;18.558;2023-05-19T00:08:01;102374.28;;;6.14;49.83
68807;BME280;55800;54.272;18.558;2023-05-19T00:10:31;102376.03;;;6.12;47.38
68807;BME280;55800;54.272;18.558;2023-05-19T00:13:02;102368.94;;;6.08;47.84
68807;BME280;55800;54.272;18.558;2023-05-19T00:15:31;102372.44;;;6.04;49.29
68807;BME280;55800;54.272;18.558;2023-05-19T00:18:00;102373.31;;;6.03;48.02
68807;BME280;55800;54.272;18.558;2023-05-19T00:20:30;102375.97;;;6.00;51.98
68807;BME280;55800;54.272;18.558;2023-05-19T00:22:59;102374.16;;;5.95;52.08
68807;BME280;55800;54.272;18.558;2023-05-19T00:25:28;102366.22;;;5.93;48.22
68807;BME280;55800;54.272;18.558;2023-05-19T00:27:58;102367.94;;;5.88;49.30
68807;BME280;55800;54.272;18.558;2023-05-19T00:30:28;102376.78;;;5.84;47.87
68807;BME280;55800;54.272;18.558;2023-05-19T00:32:58;102376.72;;;5.78;51.28
68807;BME280;55800;54.272;18.558;2023-05-19T00:35:27;102381.09;;;5.72;50.30
68807;BME280;55800;54.272;18.558;2023-05-19T00:37:57;102380.19;;;5.68;51.83
68807;BME280;55800;54.272;18.558;2023-05-19T00:40:26;102381.97;;;5.66;48.98
68807;BME280;55800;54.272;18.558;2023-05-19T00:42:59;102385.47;;;5.65;48.15
68807;BME280;55800;54.272;18.558;2023-05-19T00:45:30;102376.59;;;5.60;49.47
68807;BME280;55800;54.272;18.558;2023-05-19T00:47:59;102369.47;;;5.56;53.31
68807;BME280;55800;54.272;18.558;2023-05-19T00:50:28;102365.94;;;5.54;50.17
68807;BME280;55800;54.272;18.558;2023-05-19T00:52:58;102377.41;;;5.50;50.02
68807;BME280;55800;54.272;18.558;2023-05-19T00:55:28;102371.25;;;5.51;49.35
68807;BME280;55800;54.272;18.558;2023-05-19T00:57:59;102380.91;;;5.47;49.12
68807;BME280;55800;54.272;18.558;2023-05-19T01:00:30;102372.06;;;5.42;49.75
68807;BME280;55800;54.272;18.558;2023-05-19T01:03:01;102377.34;;;5.41;50.36
68807;BME280;55800;54.272;18.558;2023-05-19T01:05:39;102386.19;;;5.41;49.50
68807;BME280;55800;54.272;18.558;2023-05-19T01:08:11;102367.59;;;5.37;50.05
68807;BME280;55800;54.272;18.558;2023-05-19T01:10:42;102371.97;;;5.32;52.41
68807;BME280;55800;54.272;18.558;2023-05-19T01:13:11;102367.53;;;5.29;55.67
68807;BME280;55800;54.272;18.558;2023-05-19T01:15:44;102371.09;;;5.30;51.83
68807;BME280;55800;54.272;18.558;2023-05-19T01:18:22;102374.56;;;5.23;52.57
68807;BME280;55800;54.272;18.558;2023-05-19T01:20:57;102373.63;;;5.15;53.61
68807;BME280;55800;54.272;18.558;2023-05-19T01:23:36;102379.78;;;5.14;51.12
68807;BME280;55800;54.272;18.558;2023-05-19T01:26:13;102377.97;;;5.10;50.58
68807;BME280;55800;54.272;18.558;2023-05-19T01:31:37;102373.50;;;5.03;51.36
68807;BME280;55800;54.272;18.558;2023-05-19T01:34:06;102376.13;;;5.03;50.46
68807;BME280;55800;54.272;18.558;2023-05-19T01:36:38;102377.00;;;4.99;50.31
68807;BME280;55800;54.272;18.558;2023-05-19T01:39:12;102371.69;;;4.97;51.54
68807;BME280;55800;54.272;18.558;2023-05-19T01:41:41;102377.00;;;4.97;52.14
68807;BME280;55800;54.272;18.558;2023-05-19T01:44:12;102370.78;;;4.94;55.17
68807;BME280;55800;54.272;18.558;2023-05-19T01:46:45;102371.69;;;4.99;54.52
68807;BME280;55800;54.272;18.558;2023-05-19T01:49:15;102370.75;;;4.91;52.15
68807;BME280;55800;54.272;18.558;2023-05-19T01:51:44;102376.94;;;4.91;57.99
68807;BME280;55800;54.272;18.558;2023-05-19T01:54:13;102370.78;;;4.94;55.75
68807;BME280;55800;54.272;18.558;2023-05-19T01:56:45;102371.66;;;4.93;55.08
68807;BME280;55800;54.272;18.558;2023-05-19T01:59:22;102362.75;;;4.83;54.57
68807;BME280;55800;54.272;18.558;2023-05-19T02:01:53;102367.16;;;4.84;53.03
68807;BME280;55800;54.272;18.558;2023-05-19T02:04:28;102363.63;;;4.85;53.60
68807;BME280;55800;54.272;18.558;2023-05-19T02:07:09;102367.94;;;4.75;53.81
68807;BME280;55800;54.272;18.558;2023-05-19T02:12:30;102361.84;;;4.81;54.15
68807;BME280;55800;54.272;18.558;2023-05-19T02:15:03;102359.22;;;4.86;55.82
68807;BME280;55800;54.272;18.558;2023-05-19T02:17:36;102357.44;;;4.86;57.01
68807;BME280;55800;54.272;18.558;2023-05-19T02:20:09;102359.28;;;4.92;57.42
68807;BME280;55800;54.272;18.558;2023-05-19T02:22:39;102358.28;;;4.81;56.38
68807;BME280;55800;54.272;18.558;2023-05-19T02:25:08;102362.75;;;4.85;55.82
68807;BME280;55800;54.272;18.558;2023-05-19T02:27:37;102356.44;;;4.73;53.29
68807;BME280;55800;54.272;18.558;2023-05-19T02:33:56;102350.25;;;4.70;55.32
68807;BME280;55800;54.272;18.558;2023-05-19T02:36:25;102347.59;;;4.71;56.95
68807;BME280;55800;54.272;18.558;2023-05-19T02:38:54;102353.84;;;4.77;55.29
68807;BME280;55800;54.272;18.558;2023-05-19T02:41:23;102352.19;;;4.92;57.65
68807;BME280;55800;54.272;18.558;2023-05-19T02:43:53;102350.38;;;4.87;54.75
68807;BME280;55800;54.272;18.558;2023-05-19T02:46:22;102340.59;;;4.77;55.20
68807;BME280;55800;54.272;18.558;2023-05-19T02:48:51;102350.34;;;4.84;53.82
68807;BME280;55800;54.272;18.558;2023-05-19T02:51:23;102355.66;;;4.84;57.92
68807;BME280;55800;54.272;18.558;2023-05-19T02:53:52;102345.94;;;4.81;52.77
68807;BME280;55800;54.272;18.558;2023-05-19T02:56:21;102357.44;;;4.86;55.25
68807;BME280;55800;54.272;18.558;2023-05-19T02:58:50;102346.09;;;5.01;59.02
68807;BME280;55800;54.272;18.558;2023-05-19T03:01:20;102346.16;;;5.07;55.61
68807;BME280;55800;54.272;18.558;2023-05-19T03:03:50;102346.94;;;4.94;56.07
68807;BME280;55800;54.272;18.558;2023-05-19T03:06:19;102354.03;;;4.99;56.06
68807;BME280;55800;54.272;18.558;2023-05-19T03:08:51;102358.38;;;4.90;54.91
68807;BME280;55800;54.272;18.558;2023-05-19T03:11:20;102349.50;;;4.85;56.22
68807;BME280;55800;54.272;18.558;2023-05-19T03:13:50;102344.22;;;4.88;58.61
68807;BME280;55800;54.272;18.558;2023-05-19T03:16:19;102354.94;;;5.03;57.31
68807;BME280;55800;54.272;18.558;2023-05-19T03:18:48;102354.13;;;5.11;54.33
68807;BME280;55800;54.272;18.558;2023-05-19T03:21:17;102356.72;;;5.04;57.68
68807;BME280;55800;54.272;18.558;2023-05-19T03:23:47;102362.03;;;5.04;58.55
68807;BME280;55800;54.272;18.558;2023-05-19T03:26:17;102358.56;;;5.11;60.67
68807;BME280;55800;54.272;18.558;2023-05-19T03:28:46;102352.44;;;5.24;60.16
68807;BME280;55800;54.272;18.558;2023-05-19T03:31:15;102358.72;;;5.32;61.40
68807;BME280;55800;54.272;18.558;2023-05-19T03:33:44;102352.56;;;5.36;60.03
68807;BME280;55800;54.272;18.558;2023-05-19T03:36:13;102352.56;;;5.39;60.87
68807;BME280;55800;54.272;18.558;2023-05-19T03:38:43;102357.94;;;5.46;62.84
68807;BME280;55800;54.272;18.558;2023-05-19T03:41:12;102361.53;;;5.54;62.77
68807;BME280;55800;54.272;18.558;2023-05-19T03:43:42;102365.09;;;5.64;62.77
68807;BME280;55800;54.272;18.558;2023-05-19T03:46:11;102369.56;;;5.65;61.88
68807;BME280;55800;54.272;18.558;2023-05-19T03:48:46;102367.81;;;5.70;60.61
68807;BME280;55800;54.272;18.558;2023-05-19T03:51:34;102368.69;;;5.69;60.87
68807;BME280;55800;54.272;18.558;2023-05-19T03:54:23;102368.72;;;5.75;59.90
68807;BME280;55800;54.272;18.558;2023-05-19T03:56:52;102374.88;;;5.71;59.95
68807;BME280;55800;54.272;18.558;2023-05-19T03:59:23;102364.31;;;5.74;60.01
68807;BME280;55800;54.272;18.558;2023-05-19T04:01:52;102362.66;;;5.91;59.24
68807;BME280;55800;54.272;18.558;2023-05-19T04:04:21;102364.47;;;6.01;61.56
68807;BME280;55800;54.272;18.558;2023-05-19T04:06:50;102376.91;;;6.11;60.68
68807;BME280;55800;54.272;18.558;2023-05-19T04:09:20;102371.59;;;6.16;62.56
68807;BME280;55800;54.272;18.558;2023-05-19T04:11:50;102372.53;;;6.22;62.24
68807;BME280;55800;54.272;18.558;2023-05-19T04:14:19;102370.78;;;6.29;61.42
68807;BME280;55800;54.272;18.558;2023-05-19T04:16:49;102368.13;;;6.37;61.68
68807;BME280;55800;54.272;18.558;2023-05-19T04:19:19;102360.19;;;6.41;62.70
68807;BME280;55800;54.272;18.558;2023-05-19T04:21:48;102368.19;;;6.49;61.50
68807;BME280;55800;54.272;18.558;2023-05-19T04:24:17;102362.00;;;6.56;63.37
68807;BME280;55800;54.272;18.558;2023-05-19T04:26:46;102363.78;;;6.64;62.99
68807;BME280;55800;54.272;18.558;2023-05-19T04:29:17;102366.44;;;6.70;64.25
68807;BME280;55800;54.272;18.558;2023-05-19T04:31:47;102360.25;;;6.77;61.87
68807;BME280;55800;54.272;18.558;2023-05-19T04:34:18;102356.72;;;6.87;61.56
68807;BME280;55800;54.272;18.558;2023-05-19T04:36:47;102354.97;;;6.92;57.87
68807;BME280;55800;54.272;18.558;2023-05-19T04:39:21;102359.38;;;6.92;59.84
68807;BME280;55800;54.272;18.558;2023-05-19T04:41:51;102361.16;;;7.05;60.72
68807;BME280;55800;54.272;18.558;2023-05-19T04:44:20;102359.38;;;7.19;62.37
68807;BME280;55800;54.272;18.558;2023-05-19T04:46:51;102365.59;;;7.29;61.85
68807;BME280;55800;54.272;18.558;2023-05-19T04:49:24;102363.81;;;7.41;60.85
68807;BME280;55800;54.272;18.558;2023-05-19T04:51:53;102368.22;;;7.51;61.11
68807;BME280;55800;54.272;18.558;2023-05-19T04:54:28;102374.47;;;7.55;60.99
68807;BME280;55800;54.272;18.558;2023-05-19T04:56:57;102368.22;;;7.60;60.65
68807;BME280;55800;54.272;18.558;2023-05-19T04:59:28;102370.88;;;7.74;59.75
68807;BME280;55800;54.272;18.558;2023-05-19T05:01:57;102367.28;;;7.81;60.87
68807;BME280;55800;54.272;18.558;2023-05-19T05:04:30;102372.56;;;7.92;60.99
68807;BME280;55800;54.272;18.558;2023-05-19T05:07:00;102376.97;;;8.08;61.15
68807;BME280;55800;54.272;18.558;2023-05-19T05:09:29;102374.25;;;8.26;61.71
68807;BME280;55800;54.272;18.558;2023-05-19T05:12:00;102375.13;;;8.31;59.40
68807;BME280;55800;54.272;18.558;2023-05-19T05:14:30;102378.66;;;8.33;61.04
68807;BME280;55800;54.272;18.558;2023-05-19T05:16:59;102375.97;;;8.39;58.54
68807;BME280;55800;54.272;18.558;2023-05-19T05:19:30;102378.59;;;8.48;58.07
68807;BME280;55800;54.272;18.558;2023-05-19T05:22:00;102380.28;;;8.59;60.11
68807;BME280;55800;54.272;18.558;2023-05-19T05:24:30;102381.03;;;8.83;59.59
68807;BME280;55800;54.272;18.558;2023-05-19T05:27:01;102371.09;;;9.01;58.21
68807;BME280;55800;54.272;18.558;2023-05-19T05:29:32;102371.06;;;9.09;58.75
68807;BME280;55800;54.272;18.558;2023-05-19T05:32:03;102370.06;;;9.20;58.62
68807;BME280;55800;54.272;18.558;2023-05-19T05:34:34;102367.28;;;9.34;59.23
68807;BME280;55800;54.272;18.558;2023-05-19T05:37:04;102368.97;;;9.46;58.17
68807;BME280;55800;54.272;18.558;2023-05-19T05:39:34;102370.53;;;9.66;61.39
68807;BME280;55800;54.272;18.558;2023-05-19T05:42:04;102366.84;;;9.78;59.17
68807;BME280;55800;54.272;18.558;2023-05-19T05:44:35;102375.59;;;9.92;58.27
68807;BME280;55800;54.272;18.558;2023-05-19T05:47:06;102376.31;;;10.06;58.19
68807;BME280;55800;54.272;18.558;2023-05-19T05:49:37;102378.84;;;10.21;58.25
68807;BME280;55800;54.272;18.558;2023-05-19T05:52:07;102369.81;;;10.33;59.48
68807;BME280;55800;54.272;18.558;2023-05-19T05:54:44;102372.25;;;10.49;60.18
68807;BME280;55800;54.272;18.558;2023-05-19T05:57:16;102377.44;;;10.60;59.48
68807;BME280;55800;54.272;18.558;2023-05-19T05:59:46;102372.81;;;10.72;58.24
68807;BME280;55800;54.272;18.558;2023-05-19T06:02:15;102372.59;;;10.84;60.09
68807;BME280;55800;54.272;18.558;2023-05-19T06:04:46;102376.94;;;10.93;59.95
68807;BME280;55800;54.272;18.558;2023-05-19T06:07:15;102384.75;;;11.07;61.15
68807;BME280;55800;54.272;18.558;2023-05-19T06:09:45;102381.84;;;11.20;58.98
68807;BME280;55800;54.272;18.558;2023-05-19T06:12:14;102389.69;;;11.31;59.73
68807;BME280;55800;54.272;18.558;2023-05-19T06:14:48;102388.63;;;11.42;60.61
68807;BME280;55800;54.272;18.558;2023-05-19T06:17:30;102401.75;;;11.56;58.99
68807;BME280;55800;54.272;18.558;2023-05-19T06:20:03;102398.03;;;11.66;58.94
68807;BME280;55800;54.272;18.558;2023-05-19T06:22:33;102393.31;;;11.80;59.19
68807;BME280;55800;54.272;18.558;2023-05-19T06:25:04;102393.06;;;11.92;58.26
68807;BME280;55800;54.272;18.558;2023-05-19T06:27:35;102390.19;;;12.04;59.14
68807;BME280;55800;54.272;18.558;2023-05-19T06:30:05;102396.19;;;12.17;59.01
68807;BME280;55800;54.272;18.558;2023-05-19T06:32:44;102400.38;;;12.28;59.61
68807;BME280;55800;54.272;18.558;2023-05-19T06:35:15;102401.00;;;12.42;59.21
68807;BME280;55800;54.272;18.558;2023-05-19T06:37:44;102394.53;;;12.52;59.27
68807;BME280;55800;54.272;18.558;2023-05-19T06:40:14;102391.66;;;12.62;58.31
68807;BME280;55800;54.272;18.558;2023-05-19T06:42:44;102392.22;;;12.76;58.03
68807;BME280;55800;54.272;18.558;2023-05-19T06:45:22;102388.34;;;12.87;60.04
68807;BME280;55800;54.272;18.558;2023-05-19T06:47:51;102386.34;;;12.97;58.82
68807;BME280;55800;54.272;18.558;2023-05-19T06:50:22;102382.53;;;13.07;58.33
68807;BME280;55800;54.272;18.558;2023-05-19T06:52:51;102389.34;;;13.21;57.05
68807;BME280;55800;54.272;18.558;2023-05-19T06:55:21;102391.91;;;13.26;57.58
68807;BME280;55800;54.272;18.558;2023-05-19T06:57:50;102382.75;;;13.35;57.75
68807;BME280;55800;54.272;18.558;2023-05-19T07:00:20;102386.22;;;13.40;57.13
68807;BME280;55800;54.272;18.558;2023-05-19T07:02:52;102386.94;;;13.46;57.79
68807;BME280;55800;54.272;18.558;2023-05-19T07:05:23;102391.31;;;13.50;57.59
68807;BME280;55800;54.272;18.558;2023-05-19T07:07:56;102385.88;;;13.52;56.77
68807;BME280;55800;54.272;18.558;2023-05-19T07:10:28;102387.66;;;13.53;57.11
68807;BME280;55800;54.272;18.558;2023-05-19T07:12:57;102386.69;;;13.55;56.82
68807;BME280;55800;54.272;18.558;2023-05-19T07:15:30;102382.97;;;13.61;57.47
68807;BME280;55800;54.272;18.558;2023-05-19T07:17:59;102395.28;;;13.69;56.35
68807;BME280;55800;54.272;18.558;2023-05-19T07:20:31;102385.16;;;13.79;56.16
68807;BME280;55800;54.272;18.558;2023-05-19T07:23:00;102387.72;;;13.83;55.99
68807;BME280;55800;54.272;18.558;2023-05-19T07:25:30;102384.13;;;13.84;56.50
68807;BME280;55800;54.272;18.558;2023-05-19T07:27:59;102389.56;;;13.81;56.50
68807;BME280;55800;54.272;18.558;2023-05-19T07:30:29;102393.88;;;13.87;56.00
68807;BME280;55800;54.272;18.558;2023-05-19T07:32:58;102385.78;;;13.88;56.62
68807;BME280;55800;54.272;18.558;2023-05-19T07:35:27;102394.59;;;13.93;55.56
68807;BME280;55800;54.272;18.558;2023-05-19T07:37:58;102389.19;;;13.95;55.92
68807;BME280;55800;54.272;18.558;2023-05-19T07:40:27;102396.97;;;14.05;56.39
68807;BME280;55800;54.272;18.558;2023-05-19T07:42:57;102392.44;;;14.07;56.30
68807;BME280;55800;54.272;18.558;2023-05-19T07:45:27;102396.66;;;14.16;55.51
68807;BME280;55800;54.272;18.558;2023-05-19T07:47:56;102405.34;;;14.26;56.30
68807;BME280;55800;54.272;18.558;2023-05-19T07:50:25;102399.69;;;14.36;55.96
68807;BME280;55800;54.272;18.558;2023-05-19T07:52:54;102392.97;;;14.51;55.26
68807;BME280;55800;54.272;18.558;2023-05-19T07:55:25;102395.31;;;14.63;55.37
68807;BME280;55800;54.272;18.558;2023-05-19T07:57:54;102399.47;;;14.73;55.33
68807;BME280;55800;54.272;18.558;2023-05-19T08:00:24;102397.34;;;14.82;55.47
68807;BME280;55800;54.272;18.558;2023-05-19T08:02:52;102395.28;;;14.92;55.44
68807;BME280;55800;54.272;18.558;2023-05-19T08:05:25;102400.19;;;15.07;54.96
68807;BME280;55800;54.272;18.558;2023-05-19T08:07:56;102396.09;;;15.22;54.58
68807;BME280;55800;54.272;18.558;2023-05-19T08:10:27;102399.34;;;15.33;54.48
68807;BME280;55800;54.272;18.558;2023-05-19T08:12:56;102400.03;;;15.38;54.24
68807;BME280;55800;54.272;18.558;2023-05-19T08:15:25;102396.25;;;15.45;54.23
68807;BME280;55800;54.272;18.558;2023-05-19T08:17:54;102389.56;;;15.56;54.14
68807;BME280;55800;54.272;18.558;2023-05-19T08:20:23;102388.25;;;15.68;54.19
68807;BME280;55800;54.272;18.558;2023-05-19T08:22:52;102387.88;;;15.79;53.38
68807;BME280;55800;54.272;18.558;2023-05-19T08:25:22;102384.94;;;15.85;53.21
68807;BME280;55800;54.272;18.558;2023-05-19T08:27:52;102390.34;;;15.85;52.40
68807;BME280;55800;54.272;18.558;2023-05-19T08:30:21;102390.19;;;15.89;52.20
68807;BME280;55800;54.272;18.558;2023-05-19T08:32:50;102382.84;;;15.93;52.56
68807;BME280;55800;54.272;18.558;2023-05-19T08:35:20;102388.25;;;15.93;51.92
68807;BME280;55800;54.272;18.558;2023-05-19T08:37:48;102397.06;;;15.98;52.46
68807;BME280;55800;54.272;18.558;2023-05-19T08:40:18;102392.44;;;16.01;51.97
68807;BME280;55800;54.272;18.558;2023-05-19T08:42:48;102395.19;;;16.00;51.86
68807;BME280;55800;54.272;18.558;2023-05-19T08:45:18;102390.41;;;16.08;51.78
68807;BME280;55800;54.272;18.558;2023-05-19T08:47:47;102394.63;;;16.15;51.72
68807;BME280;55800;54.272;18.558;2023-05-19T08:50:19;102390.88;;;16.19;50.43
68807;BME280;55800;54.272;18.558;2023-05-19T08:52:51;102386.31;;;16.21;50.75
68807;BME280;55800;54.272;18.558;2023-05-19T08:55:25;102396.19;;;16.22;51.37
68807;BME280;55800;54.272;18.558;2023-05-19T08:57:58;102379.84;;;16.25;51.25
68807;BME280;55800;54.272;18.558;2023-05-19T09:00:28;102387.03;;;16.26;50.90
68807;BME280;55800;54.272;18.558;2023-05-19T09:02:59;102384.03;;;16.33;51.11
68807;BME280;55800;54.272;18.558;2023-05-19T09:05:48;102388.19;;;16.42;51.10
68807;BME280;55800;54.272;18.558;2023-05-19T09:08:18;102393.38;;;16.48;51.05
68807;BME280;55800;54.272;18.558;2023-05-19T09:10:47;102394.25;;;16.49;50.84
68807;BME280;55800;54.272;18.558;2023-05-19T09:13:16;102391.31;;;16.56;51.17
68807;BME280;55800;54.272;18.558;2023-05-19T09:15:47;102386.59;;;16.61;51.07
68807;BME280;55800;54.272;18.558;2023-05-19T09:18:17;102386.34;;;16.67;50.53
68807;BME280;55800;54.272;18.558;2023-05-19T09:20:47;102383.41;;;16.73;50.31
68807;BME280;55800;54.272;18.558;2023-05-19T09:23:16;102384.19;;;16.77;50.22
68807;BME280;55800;54.272;18.558;2023-05-19T09:25:46;102384.69;;;16.86;50.47
68807;BME280;55800;54.272;18.558;2023-05-19T09:28:21;102384.56;;;16.89;50.12
68807;BME280;55800;54.272;18.558;2023-05-19T09:30:59;102385.50;;;16.88;50.06
68807;BME280;55800;54.272;18.558;2023-05-19T09:33:28;102378.53;;;16.83;50.21
68807;BME280;55800;54.272;18.558;2023-05-19T09:35:57;102383.63;;;16.90;50.67
68807;BME280;55800;54.272;18.558;2023-05-19T09:38:28;102382.53;;;16.94;50.05
68807;BME280;55800;54.272;18.558;2023-05-19T09:40:58;102378.91;;;16.95;50.13
68807;BME280;55800;54.272;18.558;2023-05-19T09:43:28;102381.06;;;17.09;49.50
68807;BME280;55800;54.272;18.558;2023-05-19T09:46:01;102383.81;;;17.07;49.59
68807;BME280;55800;54.272;18.558;2023-05-19T09:48:31;102376.66;;;17.06;49.99
68807;BME280;55800;54.272;18.558;2023-05-19T09:51:01;102373.97;;;17.06;49.45
68807;BME280;55800;54.272;18.558;2023-05-19T09:53:32;102374.03;;;17.05;49.37
68807;BME280;55800;54.272;18.558;2023-05-19T09:56:02;102378.09;;;16.93;49.96
68807;BME280;55800;54.272;18.558;2023-05-19T09:58:31;102376.28;;;16.94;49.73
68807;BME280;55800;54.272;18.558;2023-05-19T10:01:05;102371.00;;;16.91;49.54
68807;BME280;55800;54.272;18.558;2023-05-19T10:03:34;102372.81;;;16.90;50.06
68807;BME280;55800;54.272;18.558;2023-05-19T10:06:03;102374.69;;;16.88;49.82
68807;BME280;55800;54.272;18.558;2023-05-19T10:08:33;102371.34;;;16.82;49.39
68807;BME280;55800;54.272;18.558;2023-05-19T10:11:06;102372.13;;;16.85;49.19
68807;BME280;55800;54.272;18.558;2023-05-19T10:13:36;102376.97;;;16.77;49.28
68807;BME280;55800;54.272;18.558;2023-05-19T10:16:08;102369.69;;;16.79;49.51
68807;BME280;55800;54.272;18.558;2023-05-19T10:18:38;102366.97;;;16.79;49.22
68807;BME280;55800;54.272;18.558;2023-05-19T10:21:07;102367.19;;;16.73;49.68
68807;BME280;55800;54.272;18.558;2023-05-19T10:23:37;102369.72;;;16.78;49.43
68807;BME280;55800;54.272;18.558;2023-05-19T10:26:06;102371.44;;;16.80;49.50
68807;BME280;55800;54.272;18.558;2023-05-19T10:28:36;102370.53;;;16.80;49.44
68807;BME280;55800;54.272;18.558;2023-05-19T10:31:09;102367.91;;;16.78;49.59
68807;BME280;55800;54.272;18.558;2023-05-19T10:33:41;102358.25;;;16.73;49.49
68807;BME280;55800;54.272;18.558;2023-05-19T10:36:22;102366.59;;;16.67;49.44
68807;BME280;55800;54.272;18.558;2023-05-19T10:38:55;102365.81;;;16.63;49.28
68807;BME280;55800;54.272;18.558;2023-05-19T10:41:27;102367.81;;;16.58;49.04
68807;BME280;55800;54.272;18.558;2023-05-19T10:44:02;102364.72;;;16.44;49.14
68807;BME280;55800;54.272;18.558;2023-05-19T10:46:37;102369.59;;;16.34;49.19
68807;BME280;55800;54.272;18.558;2023-05-19T10:49:09;102370.69;;;16.29;49.26
68807;BME280;55800;54.272;18.558;2023-05-19T10:51:47;102363.56;;;16.28;49.17
68807;BME280;55800;54.272;18.558;2023-05-19T10:54:17;102366.50;;;16.22;49.23
68807;BME280;55800;54.272;18.558;2023-05-19T10:57:06;102367.06;;;16.07;49.74
68807;BME280;55800;54.272;18.558;2023-05-19T10:59:36;102367.88;;;16.09;49.68
68807;BME280;55800;54.272;18.558;2023-05-19T11:02:08;102370.91;;;16.00;50.15
68807;BME280;55800;54.272;18.558;2023-05-19T11:04:37;102372.06;;;15.93;49.95
68807;BME280;55800;54.272;18.558;2023-05-19T11:07:07;102365.03;;;15.89;49.86
68807;BME280;55800;54.272;18.558;2023-05-19T11:09:39;102367.13;;;15.81;50.14
68807;BME280;55800;54.272;18.558;2023-05-19T11:12:08;102361.84;;;15.78;50.23
68807;BME280;55800;54.272;18.558;2023-05-19T11:14:38;102364.97;;;15.66;50.16
68807;BME280;55800;54.272;18.558;2023-05-19T11:17:11;102366.81;;;15.63;50.23
68807;BME280;55800;54.272;18.558;2023-05-19T11:19:50;102369.91;;;15.53;50.18
68807;BME280;55800;54.272;18.558;2023-05-19T11:22:21;102366.13;;;15.58;49.93
68807;BME280;55800;54.272;18.558;2023-05-19T11:24:52;102370.63;;;15.58;50.10
68807;BME280;55800;54.272;18.558;2023-05-19T11:27:23;102377.94;;;15.54;49.83
68807;BME280;55800;54.272;18.558;2023-05-19T11:29:53;102378.78;;;15.56;49.86
68807;BME280;55800;54.272;18.558;2023-05-19T11:32:27;102379.41;;;15.63;49.88
68807;BME280;55800;54.272;18.558;2023-05-19T11:34:57;102377.91;;;15.56;50.13
68807;BME280;55800;54.272;18.558;2023-05-19T11:37:26;102383.06;;;15.62;49.84
68807;BME280;55800;54.272;18.558;2023-05-19T11:39:56;102382.94;;;15.65;50.06
68807;BME280;55800;54.272;18.558;2023-05-19T11:42:25;102386.38;;;15.70;49.67
68807;BME280;55800;54.272;18.558;2023-05-19T11:44:54;102392.66;;;15.71;49.75
68807;BME280;55800;54.272;18.558;2023-05-19T11:47:23;102388.69;;;15.81;49.37
68807;BME280;55800;54.272;18.558;2023-05-19T11:49:54;102392.00;;;15.89;49.56
68807;BME280;55800;54.272;18.558;2023-05-19T11:52:24;102395.59;;;15.89;49.62
68807;BME280;55800;54.272;18.558;2023-05-19T11:54:55;102398.28;;;15.89;49.39
68807;BME280;55800;54.272;18.558;2023-05-19T11:57:28;102400.72;;;15.97;49.46
68807;BME280;55800;54.272;18.558;2023-05-19T12:00:00;102408.47;;;16.06;48.91
68807;BME280;55800;54.272;18.558;2023-05-19T12:02:32;102417.16;;;16.14;49.23
68807;BME280;55800;54.272;18.558;2023-05-19T12:05:02;102413.22;;;16.22;49.18
68807;BME280;55800;54.272;18.558;2023-05-19T12:07:31;102415.66;;;16.30;49.26
68807;BME280;55800;54.272;18.558;2023-05-19T12:10:00;102429.66;;;16.41;49.14
68807;BME280;55800;54.272;18.558;2023-05-19T12:12:33;102428.53;;;16.47;49.02
68807;BME280;55800;54.272;18.558;2023-05-19T12:15:02;102425.56;;;16.54;49.00
68807;BME280;55800;54.272;18.558;2023-05-19T12:17:32;102421.78;;;16.60;49.33
68807;BME280;55800;54.272;18.558;2023-05-19T12:20:02;102430.63;;;16.63;49.25
68807;BME280;55800;54.272;18.558;2023-05-19T12:22:32;102430.38;;;16.69;49.24
68807;BME280;55800;54.272;18.558;2023-05-19T12:25:02;102433.69;;;16.77;49.48
68807;BME280;55800;54.272;18.558;2023-05-19T12:27:34;102431.81;;;16.79;49.68
68807;BME280;55800;54.272;18.558;2023-05-19T12:30:03;102433.56;;;16.80;49.83
68807;BME280;55800;54.272;18.558;2023-05-19T12:32:33;102436.84;;;16.88;49.76
68807;BME280;55800;54.272;18.558;2023-05-19T12:35:04;102430.50;;;16.89;49.73
68807;BME280;55800;54.272;18.558;2023-05-19T12:37:34;102441.31;;;16.89;50.18
68807;BME280;55800;54.272;18.558;2023-05-19T12:40:04;102440.44;;;16.89;50.27
68807;BME280;55800;54.272;18.558;2023-05-19T12:42:34;102438.28;;;16.97;50.25
68807;BME280;55800;54.272;18.558;2023-05-19T12:45:04;102434.59;;;16.99;50.15
68807;BME280;55800;54.272;18.558;2023-05-19T12:47:34;102436.13;;;17.06;50.36
68807;BME280;55800;54.272;18.558;2023-05-19T12:50:05;102434.91;;;17.13;50.27
68807;BME280;55800;54.272;18.558;2023-05-19T12:52:40;102439.28;;;17.17;50.34
68807;BME280;55800;54.272;18.558;2023-05-19T12:55:09;102434.38;;;17.27;50.09
68807;BME280;55800;54.272;18.558;2023-05-19T12:57:39;102426.97;;;17.32;50.03
68807;BME280;55800;54.272;18.558;2023-05-19T13:00:12;102428.66;;;17.35;49.99
68807;BME280;55800;54.272;18.558;2023-05-19T13:02:54;102425.75;;;17.39;49.90
68807;BME280;55800;54.272;18.558;2023-05-19T13:05:25;102428.34;;;17.42;49.87
68807;BME280;55800;54.272;18.558;2023-05-19T13:07:55;102416.63;;;17.42;49.86
68807;BME280;55800;54.272;18.558;2023-05-19T13:10:25;102425.00;;;17.36;50.30
68807;BME280;55800;54.272;18.558;2023-05-19T13:12:55;102424.13;;;17.35;49.96